Time;durP1;ratioP1;P1;durP2;ratioP2;P2;SDS_P1;SDS_P2;PMS_P1;PMS_P2;Temp;Humidity;BMP_temperature;BMP_pressure;BME280_temperature;BME280_humidity;BME280_pressure;Samples;Min_cycle;Max_cycle;Signal;HPM_P1;HPM_P2
2023/08/19 00:01:07;;;;;;;14.52;7.05;;;19.90;99.90;;;-144.05;83.15;57018.75;6220783;23;20005;-80
2023/08/19 00:03:34;;;;;;;8.68;6.55;;;19.50;99.90;;;-144.05;82.76;57059.09;6221595;23;20001;-81
2023/08/19 00:06:30;;;;;;;12.48;6.90;;;19.80;99.90;;;-144.05;82.37;57016.63;6221804;23;20001;-81
2023/08/19 00:08:55;;;;;;;12.00;6.40;;;22.80;99.90;;;-144.05;81.94;57037.88;6221826;23;20005;-83
2023/08/19 00:11:21;;;;;;;14.50;7.32;;;21.60;99.90;;;-144.05;81.86;57031.50;6222688;23;20008;-82
2023/08/19 00:13:47;;;;;;;12.10;6.70;;;19.80;99.90;;;-144.05;81.77;57065.47;6221453;23;20100;-82
2023/08/19 00:16:13;;;;;;;11.57;7.30;;;19.70;99.90;;;-144.05;81.82;57073.97;6221146;23;20307;-81
2023/08/19 00:18:39;;;;;;;13.88;7.10;;;;;;;-144.05;81.84;57018.75;6219277;23;20015;-83
2023/08/19 00:21:05;;;;;;;10.25;7.03;;;23.20;99.90;;;-144.05;81.86;57042.13;6221251;23;20028;-81
2023/08/19 00:23:31;;;;;;;8.93;6.80;;;23.10;99.90;;;-144.05;81.74;57048.50;6194819;23;20063;-80
2023/08/19 00:25:58;;;;;;;10.68;6.00;;;22.20;99.90;;;-144.05;81.65;57035.75;6220019;23;20015;-82
2023/08/19 00:28:25;;;;;;;9.55;5.72;;;;;;;-144.05;81.66;57040.00;6219763;23;20008;-83
2023/08/19 00:30:51;;;;;;;8.75;5.60;;;21.50;99.90;;;-144.05;81.58;57025.13;6220639;23;20446;-80
2023/08/19 00:33:17;;;;;;;10.82;6.28;;;23.20;99.90;;;-144.05;81.87;57020.88;6218297;23;20019;-81
2023/08/19 00:35:43;;;;;;;12.40;6.80;;;19.90;99.90;;;-144.05;82.08;57018.75;6219549;23;20422;-82
2023/08/19 00:38:09;;;;;;;8.40;5.57;;;22.90;99.90;;;-144.05;81.97;57046.38;6220420;23;20016;-83
2023/08/19 00:40:35;;;;;;;14.95;6.63;;;;;;;-144.05;82.07;57042.13;6221493;23;20080;-80
2023/08/19 00:43:02;;;;;;;13.27;6.60;;;;;;;-144.05;82.17;57027.25;6221474;23;20008;-83
2023/08/19 00:45:28;;;;;;;8.52;5.82;;;19.80;99.90;;;-144.05;82.04;57006.00;6222042;23;20051;-82
2023/08/19 00:47:54;;;;;;;13.68;6.15;;;21.40;99.90;;;-144.05;82.01;57018.75;6193626;23;20004;-83
2023/08/19 00:50:21;;;;;;;8.60;5.53;;;22.80;99.90;;;-144.05;81.85;57040.00;6219812;23;20000;-82
2023/08/19 00:52:47;;;;;;;7.13;5.45;;;22.70;99.90;;;-144.05;82.27;57042.13;6219343;23;20009;-82
2023/08/19 00:55:13;;;;;;;7.78;5.82;;;19.00;99.90;;;-144.05;82.39;57035.75;6220496;23;20457;-83
2023/08/19 00:57:41;;;;;;;7.93;5.32;;;21.90;99.90;;;-144.05;82.22;57027.25;6195437;23;20009;-82
2023/08/19 01:00:07;;;;;;;11.57;6.55;;;22.70;99.90;;;-144.05;82.40;57014.50;6195118;23;20013;-81
2023/08/19 01:02:34;;;;;;;10.27;6.10;;;;;;;-144.05;82.93;57044.25;6221226;23;20454;-81
2023/08/19 01:05:00;;;;;;;8.93;6.07;;;21.20;99.90;;;-144.05;82.89;57029.38;6233715;23;20027;-82
2023/08/19 01:07:58;;;;;;;11.10;5.90;;;22.20;99.90;;;-144.05;82.66;57016.63;6231731;23;20000;-82
2023/08/19 01:11:05;;;;;;;6.85;5.60;;;19.30;99.90;;;-144.05;82.22;57035.75;6227542;23;20015;-83
2023/08/19 01:13:51;;;;;;;11.93;6.32;;;22.80;99.90;;;-144.05;82.21;57029.38;6227249;23;20009;-83
2023/08/19 01:16:32;;;;;;;7.00;5.10;;;22.80;99.90;;;-144.05;82.17;57025.13;6202062;23;20009;-83
2023/08/19 01:18:59;;;;;;;6.95;5.32;;;22.70;99.90;;;-144.05;82.21;57035.75;6226288;23;20039;-82
2023/08/19 01:21:25;;;;;;;10.32;5.80;;;22.10;99.90;;;-144.05;82.62;57044.25;6227206;23;20001;-83
2023/08/19 01:23:59;;;;;;;9.40;5.70;;;22.70;99.90;;;-144.05;82.64;57040.00;6226089;23;20038;-83
2023/08/19 01:26:25;;;;;;;10.85;6.53;;;19.10;99.90;;;-144.05;82.34;57052.75;6225140;23;20009;-83
2023/08/19 01:28:51;;;;;;;7.88;5.55;;;19.00;99.90;;;-144.05;82.59;57040.00;6224914;23;20035;-83
2023/08/19 01:31:17;;;;;;;7.95;5.35;;;22.10;99.90;;;-144.05;82.62;57033.63;6224740;23;20005;-82
2023/08/19 01:33:43;;;;;;;10.88;5.20;;;;;;;-144.05;82.22;57042.13;6224750;23;20008;-83
2023/08/19 01:36:37;;;;;;;7.70;5.07;;;19.20;99.90;;;-144.05;82.09;57020.88;6196856;23;20036;-81
2023/08/19 01:39:09;;;;;;;10.30;5.22;;;21.10;99.90;;;-144.05;81.81;57040.00;6223237;23;20009;-83
2023/08/19 01:41:38;;;;;;;7.63;5.57;;;21.10;99.90;;;-144.05;82.01;57042.13;6223022;23;20000;-82
2023/08/19 01:44:06;;;;;;;10.05;5.18;;;22.60;99.90;;;-144.05;82.04;56997.50;6195615;23;20360;-83
2023/08/19 01:46:32;;;;;;;12.60;6.32;;;19.30;99.90;;;-144.05;82.47;57020.88;6222203;23;20005;-82
2023/08/19 01:48:58;;;;;;;12.15;7.55;;;19.00;99.90;;;-144.05;83.60;57027.25;6222419;23;20360;-82
2023/08/19 01:51:25;;;;;;;13.38;6.68;;;21.30;99.90;;;-144.05;84.57;57008.13;6222695;23;20005;-83
2023/08/19 01:53:51;;;;;;;9.00;6.22;;;;;;;-144.05;85.54;57010.25;6223012;23;20012;-82
2023/08/19 01:56:17;;;;;;;11.07;6.45;;;21.30;99.90;;;-144.05;86.22;57018.75;6223015;23;20461;-81
2023/08/19 01:58:43;;;;;;;10.40;6.10;;;20.70;99.90;;;-144.05;86.99;57016.63;6221507;23;20007;-83
2023/08/19 02:01:13;;;;;;;15.43;7.45;;;20.20;99.90;;;-144.05;87.69;57033.63;6222057;23;20004;-84
2023/08/19 02:03:39;;;;;;;9.40;6.35;;;21.70;99.90;;;-144.05;88.22;57042.13;6194445;23;20116;-83
2023/08/19 02:06:05;;;;;;;11.27;6.65;;;20.00;99.90;;;-144.05;88.73;57023.00;6234523;23;20039;-82
2023/08/19 02:08:31;;;;;;;13.40;7.88;;;21.30;99.90;;;-144.05;89.24;57018.75;6232887;23;20009;-83
2023/08/19 02:10:57;;;;;;;11.57;6.70;;;17.70;99.90;;;-144.05;89.53;57006.00;6226030;23;20031;-83
2023/08/19 02:13:22;;;;;;;12.48;6.53;;;17.70;99.90;;;-144.05;89.93;56993.25;6226955;23;20011;-84
2023/08/19 02:15:48;;;;;;;9.98;6.28;;;20.60;99.90;;;-144.05;90.14;57010.25;6227224;23;20005;-83
2023/08/19 02:18:14;;;;;;;9.52;7.00;;;18.20;99.90;;;-144.05;90.44;57006.00;6199478;23;20009;-82
2023/08/19 02:20:40;;;;;;;10.38;6.68;;;19.60;99.90;;;-144.05;90.93;57012.38;6225541;23;20084;-82
2023/08/19 02:23:06;;;;;;;10.48;6.95;;;17.40;99.90;;;-144.05;91.20;57012.38;6224731;23;20005;-83
2023/08/19 02:25:32;;;;;;;11.25;6.70;;;17.90;99.90;;;-144.05;91.30;57010.25;6222991;23;20430;-82
2023/08/19 02:27:58;;;;;;;13.20;7.22;;;;;;;-144.05;91.71;57016.63;6224243;23;20008;-83
2023/08/19 02:30:24;;;;;;;9.43;6.82;;;20.60;99.90;;;-144.05;91.89;57008.13;6222096;23;20067;-82
2023/08/19 02:32:49;;;;;;;11.57;7.18;;;20.50;99.90;;;-144.05;91.80;56999.63;6224597;23;20005;-83
2023/08/19 02:35:17;;;;;;;9.88;6.47;;;20.10;99.90;;;-144.05;92.14;56999.63;6196905;23;20011;-84
2023/08/19 02:37:43;;;;;;;10.45;7.30;;;17.50;99.90;;;-144.05;92.44;56978.41;6223321;23;20028;-83
2023/08/19 02:40:10;;;;;;;10.00;6.63;;;20.20;99.90;;;-144.05;92.75;57016.63;6223293;23;20035;-83
2023/08/19 02:42:36;;;;;;;11.38;6.63;;;20.70;99.90;;;-144.05;92.99;57006.00;6223729;23;20072;-83
2023/08/19 02:45:03;;;;;;;10.82;6.93;;;;;;;-144.05;93.14;57027.25;6223948;23;20351;-82
2023/08/19 02:47:29;;;;;;;12.65;8.13;;;;;;;-144.05;93.31;57006.00;6222039;23;20005;-82
2023/08/19 02:49:55;;;;;;;13.32;7.55;;;;;;;-144.05;93.73;56997.50;6224264;23;20343;-83
2023/08/19 02:52:22;;;;;;;10.73;7.38;;;;;;;-144.05;93.91;57010.25;6225692;23;20038;-80
2023/08/19 02:54:47;;;;;;;10.23;6.97;;;20.70;99.90;;;-144.05;94.09;57020.88;6224222;23;20104;-83
2023/08/19 02:57:13;;;;;;;7.75;6.85;;;17.00;99.90;;;-144.05;94.12;56995.38;6223120;23;20056;-82
2023/08/19 02:59:39;;;;;;;8.95;6.07;;;19.00;99.90;;;-144.05;94.26;57018.75;6226047;23;20016;-84
2023/08/19 03:02:05;;;;;;;7.10;6.40;;;20.10;99.90;;;-144.05;94.44;57012.38;6222440;23;20011;-82
2023/08/19 03:04:31;;;;;;;15.13;6.85;;;16.90;99.90;;;-144.05;94.59;57006.00;6225169;23;20004;-82
2023/08/19 03:06:58;;;;;;;9.05;6.20;;;;;;;-144.05;94.79;57012.38;6230135;23;20465;-83
2023/08/19 03:09:23;;;;;;;9.65;6.20;;;18.80;99.90;;;-144.05;94.83;56997.50;6229194;23;20068;-82
2023/08/19 03:11:49;;;;;;;12.32;7.60;;;17.00;99.90;;;-144.05;94.87;56978.41;6230229;23;20004;-82
2023/08/19 03:14:15;;;;;;;10.90;6.43;;;20.50;99.90;;;-144.05;95.14;57006.00;6228747;23;20338;-83
2023/08/19 03:16:41;;;;;;;8.50;6.00;;;;;;;-144.05;95.19;57008.13;6218674;23;20013;-82
2023/08/19 03:19:08;;;;;;;9.00;6.75;;;;;;;-144.05;95.31;57014.50;6192183;23;20040;-82
2023/08/19 03:21:34;;;;;;;11.85;6.82;;;20.50;99.90;;;-144.05;95.29;57014.50;6218642;23;20397;-82
2023/08/19 03:24:00;;;;;;;9.98;6.43;;;;;;;-144.05;95.32;57018.75;6218632;23;20000;-82
2023/08/19 03:26:26;;;;;;;8.95;7.32;;;16.80;99.90;;;-144.05;95.37;56993.25;6190655;23;20015;-82
2023/08/19 03:28:52;;;;;;;11.75;7.03;;;20.20;99.90;;;-144.05;95.40;57006.00;6218065;23;20005;-81
2023/08/19 03:31:18;;;;;;;9.38;6.38;;;20.20;99.90;;;-144.05;95.67;57006.00;6190341;23;20008;-82
2023/08/19 03:33:44;;;;;;;8.85;6.38;;;16.90;99.90;;;-144.05;95.68;56997.50;6190699;23;20004;-81
2023/08/19 03:36:10;;;;;;;8.10;6.28;;;20.00;99.90;;;-144.05;95.83;57006.00;6191387;23;20000;-81
2023/08/19 03:38:36;;;;;;;8.25;7.05;;;19.80;99.90;;;-144.05;95.96;57001.75;6218274;23;20005;-81
2023/08/19 03:41:02;;;;;;;17.45;8.05;;;18.70;99.90;;;-144.05;95.87;56993.25;6191029;23;20031;-85
2023/08/19 03:43:28;;;;;;;12.57;7.18;;;20.50;99.90;;;-144.05;95.93;57006.00;6217890;23;20008;-81
2023/08/19 03:45:53;;;;;;;10.82;6.57;;;19.90;99.90;;;-144.05;96.02;57012.38;6217544;23;20011;-82
2023/08/19 03:48:19;;;;;;;13.88;7.05;;;17.10;99.90;;;-144.05;96.04;57020.88;6190369;23;20028;-82
2023/08/19 03:50:45;;;;;;;13.43;7.22;;;;;;;-144.05;96.07;57006.00;6216318;23;20008;-82
2023/08/19 03:53:11;;;;;;;15.38;6.85;;;19.70;99.90;;;-144.05;96.17;57001.75;6218143;23;20484;-83
2023/08/19 03:55:37;;;;;;;10.00;6.38;;;16.70;99.90;;;-144.05;96.12;56997.50;6218369;23;20009;-81
2023/08/19 03:58:03;;;;;;;11.43;6.35;;;16.60;99.90;;;-144.05;96.29;57003.88;6217348;23;20062;-80
2023/08/19 04:00:30;;;;;;;8.90;6.07;;;19.80;99.90;;;-144.05;96.31;57003.88;6216475;23;20005;-82
2023/08/19 04:02:55;;;;;;;7.40;6.15;;;19.50;99.90;;;-144.05;96.55;56997.50;6217244;23;20317;-81
2023/08/19 04:05:21;;;;;;;10.60;6.07;;;16.60;99.90;;;-144.05;96.43;56982.66;6217262;23;20004;-82
2023/08/19 04:07:47;;;;;;;9.48;6.22;;;19.60;99.90;;;-144.05;96.46;56991.13;6217835;23;20008;-81
2023/08/19 04:10:13;;;;;;;10.82;6.75;;;18.40;99.90;;;-144.05;96.63;56993.25;6190520;23;20013;-82
2023/08/19 04:12:40;;;;;;;13.63;6.82;;;16.50;99.90;;;-144.05;96.72;56984.78;6216669;23;20012;-81
2023/08/19 04:15:08;;;;;;;8.13;5.38;;;16.70;99.90;;;-144.05;96.70;57001.75;6234817;23;20057;-82
2023/08/19 04:17:35;;;;;;;11.60;7.00;;;19.80;99.90;;;-144.05;96.74;57018.75;6226329;23;20013;-83
2023/08/19 04:20:01;;;;;;;15.25;7.07;;;19.90;99.90;;;-144.05;96.77;57001.75;6224525;23;20350;-83
2023/08/19 04:22:26;;;;;;;16.67;6.80;;;20.20;99.90;;;-144.05;96.79;57023.00;6227400;23;20000;-83
2023/08/19 04:24:53;;;;;;;9.10;6.40;;;19.80;99.90;;;-144.05;96.76;57040.00;6225456;23;20005;-83
2023/08/19 04:27:20;;;;;;;10.30;6.47;;;19.70;99.90;;;-144.05;96.85;56997.50;6225713;23;20023;-82
2023/08/19 04:29:46;;;;;;;8.57;6.32;;;;;;;-144.05;96.85;56995.38;6197641;23;20410;-82
2023/08/19 04:32:13;;;;;;;10.20;7.03;;;19.60;99.90;;;-144.05;96.87;57008.13;6222275;23;20027;-83
2023/08/19 04:34:39;;;;;;;8.35;7.18;;;20.30;99.90;;;-144.05;96.95;56999.63;6223785;23;20076;-83
2023/08/19 04:37:06;;;;;;;8.93;6.07;;;20.10;99.90;;;-144.05;96.69;57018.75;6223151;23;20005;-83
2023/08/19 04:39:32;;;;;;;8.23;5.85;;;19.90;99.90;;;-144.05;96.85;57010.25;6194972;23;20063;-82
2023/08/19 04:41:59;;;;;;;9.00;6.60;;;16.70;99.90;;;-144.05;96.76;57014.50;6220842;23;20001;-82
2023/08/19 04:44:25;;;;;;;9.50;6.55;;;19.70;99.90;;;-144.05;96.85;57001.75;6220265;23;20346;-81
2023/08/19 04:46:50;;;;;;;7.40;6.13;;;20.20;99.90;;;-144.05;96.57;56993.25;6226178;23;20009;-82
2023/08/19 04:49:16;;;;;;;11.25;6.55;;;18.90;99.90;;;-144.05;96.60;56999.63;6225364;23;20013;-82
2023/08/19 04:51:42;;;;;;;11.02;6.85;;;;;;;-144.05;96.41;57014.50;6225236;23;20015;-82
2023/08/19 04:54:09;;;;;;;7.93;6.63;;;20.00;99.90;;;-144.05;96.41;57008.13;6226323;23;20008;-82
2023/08/19 04:56:35;;;;;;;9.85;6.10;;;20.30;99.90;;;-144.05;96.42;56999.63;6225194;23;20430;-82
2023/08/19 04:59:00;;;;;;;8.93;6.45;;;20.90;99.90;;;-144.05;96.49;57006.00;6225082;23;20011;-81
2023/08/19 05:01:28;;;;;;;8.07;5.88;;;19.00;99.90;;;-144.05;96.27;57012.38;6224529;23;20004;-82
2023/08/19 05:03:54;;;;;;;6.43;5.75;;;;;;;-144.05;96.24;57023.00;6222023;23;20054;-81
2023/08/19 05:06:21;;;;;;;14.52;6.82;;;19.10;99.90;;;-144.05;95.93;56991.13;6222338;23;20146;-82
2023/08/19 05:08:47;;;;;;;11.55;6.43;;;;;;;-144.05;95.84;57018.75;6221340;23;20000;-81
2023/08/19 05:11:14;;;;;;;9.98;6.32;;;20.50;99.90;;;-144.05;95.68;57029.38;6222492;23;20005;-83
2023/08/19 05:13:39;;;;;;;12.38;6.75;;;19.30;99.90;;;-144.05;95.54;57027.25;6221967;23;20005;-81
2023/08/19 05:16:05;;;;;;;11.98;7.15;;;20.40;99.90;;;-144.05;95.40;57025.13;6221629;23;20008;-82
2023/08/19 05:18:31;;;;;;;21.00;9.52;;;20.80;99.90;;;-144.05;95.27;56991.13;6220523;23;20042;-81
2023/08/19 05:20:57;;;;;;;15.60;8.25;;;17.80;99.90;;;-144.05;95.27;56999.63;6220754;23;20011;-82
2023/08/19 05:23:23;;;;;;;15.82;7.32;;;18.10;99.90;;;-144.05;95.24;57025.13;6222418;23;20004;-83
2023/08/19 05:25:49;;;;;;;10.45;7.25;;;17.80;99.90;;;-144.05;95.17;57025.13;6221592;23;20016;-82
2023/08/19 05:28:15;;;;;;;16.02;8.85;;;21.60;99.90;;;-144.05;95.25;57029.38;6220244;23;20354;-82
2023/08/19 05:30:40;;;;;;;17.95;9.48;;;19.90;99.90;;;-144.05;95.03;57020.88;6219557;23;20147;-81
2023/08/19 05:33:06;;;;;;;23.67;11.40;;;18.20;99.90;;;-144.05;94.84;57016.63;6221575;23;20004;-81
2023/08/19 05:35:32;;;;;;;16.80;10.32;;;21.40;99.90;;;-144.05;94.72;57014.50;6217715;23;20473;-80
2023/08/19 05:37:58;;;;;;;22.83;11.40;;;20.30;99.90;;;-144.05;94.51;57029.38;6217887;23;20013;-81
2023/08/19 05:40:24;;;;;;;20.05;9.80;;;20.50;99.90;;;-144.05;94.09;57035.75;6217436;23;20340;-81
2023/08/19 05:42:49;;;;;;;18.55;9.85;;;22.00;99.90;;;-144.05;93.76;57029.38;6190927;23;20043;-82
2023/08/19 05:45:15;;;;;;;16.73;7.30;;;22.00;99.90;;;-144.05;92.45;57029.38;6215699;23;20422;-84
2023/08/19 05:47:42;;;;;;;8.57;4.63;;;;;;;-144.05;89.76;57014.50;6191665;23;20360;-81
2023/08/19 05:50:09;;;;;;;11.85;4.47;;;;;;;-144.05;83.76;57035.75;6218658;23;20333;-81
2023/08/19 05:52:34;;;;;;;9.55;4.10;;;23.20;99.90;;;-144.05;79.92;57040.00;6217733;23;20418;-79
2023/08/19 05:55:00;;;;;;;9.00;3.95;;;20.00;99.90;;;-144.05;77.49;57056.97;6216075;23;20140;-79
2023/08/19 05:57:26;;;;;;;9.50;3.17;;;22.00;99.90;;;-144.05;73.23;57042.13;6215722;23;20005;-78
2023/08/19 05:59:52;;;;;;;5.13;3.25;;;24.00;99.90;;;-144.05;71.06;57080.34;6215306;23;20001;-78
2023/08/19 06:02:18;;;;;;;3.65;2.65;;;24.70;99.90;;;-144.05;70.31;57048.50;6215744;23;20001;-78
2023/08/19 06:04:44;;;;;;;5.25;2.78;;;22.90;99.90;;;-144.05;69.16;57054.88;6216213;23;20001;-80
2023/08/19 06:07:10;;;;;;;11.18;3.03;;;25.10;99.90;;;-144.05;67.46;57073.97;6217589;23;20008;-78
2023/08/19 06:09:36;;;;;;;6.57;2.40;;;23.40;99.90;;;-144.05;66.32;57086.72;6189371;23;20096;-78
2023/08/19 06:12:02;;;;;;;6.03;2.50;;;23.60;99.90;;;-144.05;65.36;57086.72;6216943;23;20009;-79
2023/08/19 06:14:28;;;;;;;5.18;2.83;;;22.50;99.90;;;-144.05;65.09;57082.47;6216850;23;20009;-78
2023/08/19 06:16:54;;;;;;;3.85;2.70;;;24.00;99.90;;;-144.05;63.40;57090.97;6216833;23;20011;-79
2023/08/19 06:19:20;;;;;;;12.68;4.25;;;25.60;99.90;;;-144.05;62.80;57065.47;6217068;23;20020;-78
2023/08/19 06:21:46;;;;;;;5.72;3.53;;;24.30;99.90;;;-144.05;62.03;57095.22;6216783;23;20005;-79
2023/08/19 06:24:12;;;;;;;5.78;3.30;;;22.90;99.90;;;-144.05;60.97;57095.22;6216785;23;20079;-77
2023/08/19 06:26:38;;;;;;;5.15;2.63;;;26.10;99.90;;;-144.05;60.88;57095.22;6216528;23;20017;-76
2023/08/19 06:29:04;;;;;;;6.68;2.33;;;24.80;99.90;;;-144.05;60.17;57107.97;6215607;23;20011;-82
2023/08/19 06:31:31;;;;;;;4.85;2.42;;;26.70;99.90;;;-144.05;59.68;57105.84;6220491;23;20004;-81
2023/08/19 06:33:57;;;;;;;6.07;2.90;;;25.10;99.90;;;-144.05;59.19;57118.59;6219703;23;20004;-82
2023/08/19 06:36:28;;;;;;;7.15;2.40;;;25.20;99.90;;;-144.05;59.53;57131.31;6219618;23;20028;-80
2023/08/19 06:39:27;;;;;;;7.50;2.53;;;26.50;99.90;;;-144.05;59.34;57118.59;6217804;23;20039;-83
2023/08/19 06:42:04;;;;;;;7.43;2.63;;;26.40;99.90;;;-144.05;59.41;57118.59;6192878;23;20000;-82
2023/08/19 06:44:33;;;;;;;3.65;2.42;;;26.50;99.90;;;-144.05;58.91;57114.34;6219733;23;20005;-83
2023/08/19 06:47:02;;;;;;;8.05;2.40;;;23.60;99.90;;;-144.05;59.51;57112.22;6220152;23;20004;-81
2023/08/19 06:49:29;;;;;;;9.25;2.90;;;25.10;99.90;;;-144.05;58.93;57122.84;6191766;23;20014;-80
2023/08/19 06:51:55;;;;;;;7.13;2.65;;;22.80;99.90;;;-144.05;58.85;57141.94;6191505;23;20005;-82
2023/08/19 06:54:22;;;;;;;4.55;2.58;;;26.90;99.90;;;-144.05;58.90;57114.34;6218401;23;20015;-82
2023/08/19 06:57:09;;;;;;;5.30;2.20;;;26.80;99.90;;;-144.05;58.36;57141.94;6218658;23;20004;-78
2023/08/19 06:59:40;;;;;;;5.70;2.20;;;27.40;99.90;;;-144.05;58.38;57112.22;6217793;23;20009;-78
2023/08/19 07:02:09;;;;;;;5.70;2.72;;;27.00;99.90;;;-144.05;57.57;57146.19;6214221;23;20443;-77
2023/08/19 07:04:36;;;;;;;5.20;2.28;;;25.60;99.90;;;-144.05;57.51;57112.22;6216630;23;20055;-76
2023/08/19 07:07:04;;;;;;;5.53;2.33;;;27.40;99.90;;;-144.05;57.36;57133.44;6215627;23;20545;-77
2023/08/19 07:09:34;;;;;;;3.40;2.38;;;27.50;99.90;;;-144.05;57.00;57141.94;6216277;23;20019;-79
2023/08/19 07:12:02;;;;;;;3.78;2.22;;;27.30;99.90;;;-144.05;57.73;57131.31;6216228;23;20012;-77
2023/08/19 07:14:29;;;;;;;4.63;1.63;;;27.10;99.90;;;-144.05;57.44;57137.69;6213509;23;20039;-79
2023/08/19 07:17:00;;;;;;;5.95;2.45;;;24.00;99.90;;;-144.05;57.50;57186.56;6218550;23;20004;-80
2023/08/19 07:19:37;;;;;;;2.70;2.15;;;24.20;99.90;;;-144.05;56.88;57178.06;6221372;23;20046;-79
2023/08/19 07:22:05;;;;;;;4.82;2.08;;;27.80;99.90;;;-144.05;57.39;57135.56;6216274;23;20019;-79
2023/08/19 07:24:32;;;;;;;7.47;2.55;;;23.10;99.90;;;-144.05;57.17;57137.69;6224123;23;20004;-78
2023/08/19 07:27:05;;;;;;;3.67;2.35;;;26.00;99.90;;;-144.05;57.07;57175.94;6218647;23;20019;-79
2023/08/19 07:29:31;;;;;;;4.00;2.30;;;26.00;99.90;;;-144.05;56.95;57148.31;6214999;23;20112;-80
2023/08/19 07:31:59;;;;;;;7.18;2.70;;;27.10;99.90;;;-144.05;57.68;57131.31;6217245;23;20030;-78
2023/08/19 07:34:25;;;;;;;8.48;2.50;;;25.90;99.90;;;-144.05;57.46;57169.56;6217096;23;20005;-78
2023/08/19 07:36:51;;;;;;;4.63;2.20;;;27.30;99.90;;;-144.05;57.30;57169.56;6189664;23;20009;-78
2023/08/19 07:39:17;;;;;;;5.40;2.40;;;28.00;99.90;;;-144.05;56.37;57146.19;6215579;23;20011;-77
2023/08/19 07:41:43;;;;;;;5.13;2.20;;;27.60;99.90;;;-144.05;56.64;57131.31;6215355;23;20004;-77
2023/08/19 07:44:09;;;;;;;3.72;2.40;;;27.40;99.90;;;-144.05;56.60;57175.94;6215382;23;20637;-78
2023/08/19 07:46:35;;;;;;;3.63;2.30;;;26.30;99.90;;;-144.05;56.32;57180.19;6216103;23;20013;-79
2023/08/19 07:49:01;;;;;;;4.63;2.50;;;27.90;99.90;;;-144.05;56.18;57180.19;6215444;23;20055;-77
2023/08/19 07:51:27;;;;;;;6.10;2.38;;;27.20;99.90;;;-144.05;56.50;57175.94;6216425;23;20016;-83
2023/08/19 07:53:53;;;;;;;5.07;2.90;;;24.80;99.90;;;-144.05;55.87;57167.44;6217277;23;20012;-79
2023/08/19 07:56:19;;;;;;;9.13;2.67;;;27.70;99.90;;;-144.05;56.62;57167.44;6216103;23;20445;-79
2023/08/19 07:58:45;;;;;;;9.10;3.13;;;26.50;99.90;;;-144.05;56.70;57156.81;6190329;23;20004;-79
2023/08/19 08:01:11;;;;;;;4.55;2.45;;;;;;;-144.05;56.71;57197.19;6190443;23;20007;-83
2023/08/19 08:03:38;;;;;;;4.18;2.05;;;26.50;99.90;;;-144.05;56.61;57178.06;6217088;23;20005;-83
2023/08/19 08:06:04;;;;;;;8.10;2.97;;;25.20;99.90;;;-144.05;56.36;57180.19;6216925;23;20028;-80
2023/08/19 08:08:30;;;;;;;4.47;2.63;;;;;;;-144.05;55.67;57175.94;6215267;23;20051;-81
2023/08/19 08:10:57;;;;;;;4.25;2.53;;;;;;;-144.05;55.55;57195.06;6216921;23;20091;-83
2023/08/19 08:13:23;;;;;;;4.25;2.30;;;27.80;99.90;;;-144.05;56.08;57180.19;6217596;23;20015;-84
2023/08/19 08:15:48;;;;;;;6.13;2.47;;;28.60;99.90;;;-144.05;55.75;57167.44;6215186;23;20008;-84
2023/08/19 08:18:15;;;;;;;5.65;2.22;;;25.30;99.90;;;-144.05;55.62;57212.03;6189619;23;20476;-82
2023/08/19 08:20:41;;;;;;;5.78;2.67;;;26.80;99.90;;;-144.05;55.57;57199.31;6217400;23;19997;-83
2023/08/19 08:23:07;;;;;;;2.97;2.03;;;26.80;99.90;;;-144.05;55.91;57184.44;6217328;23;20004;-84
2023/08/19 08:25:33;;;;;;;7.65;2.83;;;28.30;99.90;;;-144.05;56.82;57188.69;6191126;23;20039;-84
2023/08/19 08:27:59;;;;;;;3.85;2.13;;;28.00;99.90;;;-144.05;57.36;57184.44;6190619;23;20013;-81
2023/08/19 08:30:24;;;;;;;5.68;2.67;;;26.80;99.90;;;-144.05;58.85;57184.44;6191230;23;20017;-82
2023/08/19 08:32:51;;;;;;;4.70;2.85;;;28.00;99.90;;;-144.05;60.99;57167.44;6217950;23;20088;-84
2023/08/19 08:35:17;;;;;;;6.28;2.72;;;27.70;99.90;;;-144.05;61.77;57167.44;6217994;23;20013;-77
2023/08/19 08:37:43;;;;;;;5.15;3.08;;;28.00;99.90;;;-144.05;63.90;57150.44;6221115;23;20319;-81
2023/08/19 08:40:10;;;;;;;4.63;2.70;;;26.20;99.90;;;-144.05;64.64;57163.19;6221726;23;20010;-81
2023/08/19 08:42:36;;;;;;;5.47;2.40;;;24.80;99.90;;;-144.05;63.65;57148.31;6219721;23;20001;-83
2023/08/19 08:45:03;;;;;;;5.78;3.08;;;26.00;99.90;;;-144.05;62.88;57173.81;6218198;23;20008;-76
2023/08/19 08:47:30;;;;;;;5.82;2.67;;;26.10;99.90;;;-144.05;62.15;57148.31;6218820;23;20009;-76
2023/08/19 08:49:58;;;;;;;5.68;2.92;;;27.30;99.90;;;-144.05;61.58;57148.31;6219523;23;20005;-82
2023/08/19 08:52:25;;;;;;;4.28;2.70;;;27.60;99.90;;;-144.05;60.22;57156.81;6217747;23;20016;-83
2023/08/19 08:54:54;;;;;;;5.70;3.15;;;27.80;99.90;;;-144.05;59.68;57156.81;6218540;23;20090;-81
2023/08/19 08:57:20;;;;;;;8.80;2.88;;;26.30;99.90;;;-144.05;59.36;57161.06;6218218;23;20008;-82
2023/08/19 08:59:46;;;;;;;7.35;2.53;;;26.40;99.90;;;-144.05;58.31;57180.19;6219975;23;20058;-81
2023/08/19 09:02:14;;;;;;;6.18;2.63;;;27.70;99.90;;;-144.05;58.21;57180.19;6219820;23;20008;-82
2023/08/19 09:04:46;;;;;;;7.55;3.00;;;26.50;99.90;;;-144.05;58.42;57192.94;6191232;23;20027;-81
2023/08/19 09:07:30;;;;;;;10.65;2.85;;;27.90;99.90;;;-144.05;59.03;57173.81;6216476;23;20019;-81
2023/08/19 09:10:01;;;;;;;5.18;2.88;;;27.70;99.90;;;-144.05;59.27;57156.81;6217515;23;20078;-82
2023/08/19 09:12:34;;;;;;;6.05;3.20;;;28.30;99.90;;;-144.05;58.85;57201.44;6218274;23;20008;-82
2023/08/19 09:15:06;;;;;;;8.32;3.17;;;27.80;99.90;;;-144.05;57.95;57165.31;6217517;23;20442;-82
2023/08/19 09:17:33;;;;;;;10.27;3.20;;;26.80;99.90;;;-144.05;58.23;57186.56;6218571;23;20280;-82
2023/08/19 09:20:00;;;;;;;4.82;2.95;;;27.90;99.90;;;-144.05;57.01;57184.44;6220930;23;20068;-82
2023/08/19 09:22:26;;;;;;;3.72;2.45;;;27.10;99.90;;;-144.05;56.28;57203.56;6220565;23;20031;-83
2023/08/19 09:24:56;;;;;;;6.38;3.00;;;28.90;99.90;;;-144.05;54.88;57220.53;6218499;23;20004;-81
2023/08/19 09:27:29;;;;;;;7.90;3.42;;;28.00;99.90;;;-144.05;53.05;57263.03;6191067;23;20016;-83
2023/08/19 09:29:56;;;;;;;3.55;2.50;;;30.10;99.90;;;-144.05;51.79;57318.25;6217593;23;20076;-83
2023/08/19 09:32:36;;;;;;;6.28;2.70;;;31.40;99.90;;;-144.05;50.51;57314.00;6190072;23;20019;-81
2023/08/19 09:35:12;;;;;;;3.53;2.53;;;32.00;99.90;;;-144.05;48.83;57328.88;6217632;23;20008;-83
2023/08/19 09:37:40;;;;;;;;;;;30.30;99.90;;;-144.05;46.70;57307.63;6217031;23;20056;-82
2023/08/19 09:40:11;;;;;;;6.13;2.90;;;32.30;99.90;;;-144.05;46.10;57305.50;6217539;23;19904;-84
2023/08/19 09:42:45;;;;;;;7.88;3.05;;;32.10;99.90;;;-144.05;46.64;57365.00;6191086;23;20012;-83
2023/08/19 09:45:21;;;;;;;6.18;3.03;;;32.40;99.90;;;-144.05;46.11;57369.25;6218295;23;20434;-83
2023/08/19 09:47:52;;;;;;;6.03;2.75;;;32.00;99.90;;;-144.05;45.12;57358.63;6218855;23;20011;-84
2023/08/19 09:50:21;;;;;;;5.95;2.67;;;30.50;99.90;;;-144.05;45.85;57354.38;6192209;23;20031;-81
2023/08/19 09:52:57;;;;;;;4.78;3.03;;;31.50;99.90;;;-144.05;46.67;57337.38;6220031;23;20023;-82
2023/08/19 09:55:32;;;;;;;4.82;3.03;;;30.10;99.90;;;-144.05;46.90;57350.13;6217268;23;20015;-81
2023/08/19 09:57:58;;;;;;;6.07;3.08;;;31.90;99.90;;;-144.05;47.43;57335.25;6217714;23;20426;-82
2023/08/19 10:00:24;;;;;;;4.85;3.10;;;;;;;-144.05;46.22;57333.13;6216969;23;20040;-82
2023/08/19 10:02:51;;;;;;;7.43;3.00;;;30.20;99.90;;;-144.05;46.71;57316.13;6190327;23;20426;-81
2023/08/19 10:05:17;;;;;;;5.43;2.78;;;30.10;99.90;;;-144.05;48.44;57307.63;6217714;23;20343;-82
2023/08/19 10:07:57;;;;;;;5.60;3.05;;;31.20;99.90;;;-144.05;47.48;57328.88;6217040;23;20288;-82
2023/08/19 10:10:30;;;;;;;6.60;3.25;;;28.80;99.90;;;-144.05;47.49;57316.13;6218030;23;20008;-78
2023/08/19 10:12:58;;;;;;;5.65;3.03;;;30.70;99.90;;;-144.05;46.41;57377.72;6228798;23;20396;-83